createdAt,value
2019-02-25T00:00:16.744Z,65.76
2019-02-25T00:00:47.940Z,65.47
2019-02-25T00:01:19.163Z,65.32
2019-02-25T00:01:50.389Z,65.50
2019-02-25T00:02:21.596Z,65.68
2019-02-25T00:02:52.809Z,65.68
2019-02-25T00:03:24.043Z,65.79
2019-02-25T00:03:55.267Z,66.01
2019-02-25T00:04:26.486Z,66.01
2019-02-25T00:04:57.747Z,66.06
2019-02-25T00:05:28.951Z,66.06
2019-02-25T00:06:00.178Z,66.15
2019-02-25T00:06:31.393Z,66.15
2019-02-25T00:07:02.606Z,66.32
2019-02-25T00:07:33.821Z,66.32
2019-02-25T00:08:05.043Z,66.49
2019-02-25T00:08:36.299Z,66.58
2019-02-25T00:09:07.517Z,67.33
2019-02-25T00:09:38.756Z,66.96
2019-02-25T00:10:09.968Z,66.76
2019-02-25T00:10:41.227Z,67.01
2019-02-25T00:11:12.518Z,66.65
2019-02-25T00:11:43.718Z,66.30
2019-02-25T00:12:14.942Z,66.04
2019-02-25T00:12:46.204Z,66.04
2019-02-25T00:13:17.407Z,65.81
2019-02-25T00:13:48.646Z,65.01
2019-02-25T00:14:19.973Z,64.83
2019-02-25T00:14:51.218Z,64.97
2019-02-25T00:15:22.492Z,64.68
2019-02-25T00:15:53.697Z,64.07
2019-02-25T00:16:24.901Z,63.59
2019-02-25T00:16:56.183Z,63.93
2019-02-25T00:17:27.390Z,63.75
2019-02-25T00:17:58.602Z,63.95
2019-02-25T00:18:29.798Z,63.39
2019-02-25T00:19:01.021Z,62.75
2019-02-25T00:19:32.236Z,63.24
2019-02-25T00:20:03.449Z,63.24
2019-02-25T00:20:34.696Z,64.09
2019-02-25T00:21:05.900Z,64.09
2019-02-25T00:21:37.111Z,64.22
2019-02-25T00:22:08.318Z,64.25
2019-02-25T00:22:40.479Z,64.77
2019-02-25T00:23:11.698Z,65.08
2019-02-25T00:23:42.926Z,65.08
2019-02-25T00:24:14.162Z,65.37
2019-02-25T00:24:45.390Z,65.89
2019-02-25T00:25:16.613Z,65.68
2019-02-25T00:25:47.874Z,64.83
2019-02-25T00:26:19.076Z,63.95
2019-02-25T00:26:50.324Z,63.71
2019-02-25T00:27:21.533Z,64.01
2019-02-25T00:27:52.752Z,64.01
2019-02-25T00:28:23.947Z,64.65
2019-02-25T00:28:55.185Z,64.91
2019-02-25T00:29:26.409Z,64.48
2019-02-25T00:29:57.621Z,64.17
2019-02-25T00:30:28.830Z,63.69
2019-02-25T00:31:00.079Z,63.09
2019-02-25T00:31:31.298Z,63.29
2019-02-25T00:32:02.510Z,63.50
2019-02-25T00:32:33.728Z,63.50
2019-02-25T00:33:04.930Z,63.62
2019-02-25T00:33:36.179Z,63.65
2019-02-25T00:34:07.387Z,63.62
2019-02-25T00:34:38.601Z,63.93
2019-02-25T00:35:09.872Z,63.66
2019-02-25T00:35:41.098Z,63.61
2019-02-25T00:36:12.326Z,63.61
2019-02-25T00:36:45.901Z,63.28
2019-02-25T00:37:17.114Z,62.70
2019-02-25T00:37:48.326Z,62.36
2019-02-25T00:38:19.622Z,62.61
2019-02-25T00:38:50.815Z,63.02
2019-02-25T00:39:22.032Z,62.58
2019-02-25T00:39:53.258Z,62.36
2019-02-25T00:40:24.463Z,62.33
2019-02-25T00:40:55.666Z,61.86
2019-02-25T00:41:26.888Z,62.74
2019-02-25T00:41:58.127Z,62.15
2019-02-25T00:42:29.337Z,62.15
2019-02-25T00:43:00.597Z,61.91
2019-02-25T00:43:32.923Z,61.83
2019-02-25T00:44:04.143Z,61.98
2019-02-25T00:44:35.411Z,62.72
2019-02-25T00:45:06.618Z,62.77
2019-02-25T00:45:37.821Z,63.57
2019-02-25T00:46:09.083Z,64.51
2019-02-25T00:46:40.323Z,63.55
2019-02-25T00:47:11.529Z,62.91
2019-02-25T00:47:42.748Z,62.91
2019-02-25T00:48:14.020Z,63.47
2019-02-25T00:48:45.230Z,63.01
2019-02-25T00:49:16.512Z,63.29
2019-02-25T00:49:47.734Z,63.29
2019-02-25T00:50:18.948Z,62.50
2019-02-25T00:50:50.205Z,62.15
2019-02-25T00:51:21.389Z,62.07
2019-02-25T00:51:52.612Z,62.12
2019-02-25T00:52:23.836Z,62.12
2019-02-25T00:52:55.067Z,64.17
2019-02-25T00:53:26.288Z,64.17
2019-02-25T00:53:57.519Z,63.45
2019-02-25T00:54:28.788Z,62.04
2019-02-25T00:54:59.999Z,62.17
2019-02-25T00:55:31.201Z,62.17
2019-02-25T00:56:02.418Z,62.27
2019-02-25T00:56:33.632Z,63.03
2019-02-25T00:57:04.882Z,63.34
2019-02-25T00:57:36.111Z,62.98
2019-02-25T00:58:07.326Z,63.80
2019-02-25T00:58:38.561Z,63.35
2019-02-25T00:59:09.795Z,63.08
2019-02-25T00:59:41.001Z,63.01
2019-02-25T01:00:12.222Z,63.68
2019-02-25T01:00:43.487Z,63.93
2019-02-25T01:01:14.694Z,64.38
2019-02-25T01:01:45.897Z,64.06
2019-02-25T01:02:17.113Z,63.12
2019-02-25T01:02:48.336Z,63.12
2019-02-25T01:03:19.538Z,63.15
2019-02-25T01:03:50.742Z,63.01
2019-02-25T01:04:21.949Z,63.01
2019-02-25T01:04:53.173Z,63.98
2019-02-25T01:05:24.378Z,63.13
2019-02-25T01:05:55.676Z,62.35
2019-02-25T01:06:26.939Z,62.47
2019-02-25T01:06:58.149Z,63.83
2019-02-25T01:07:29.356Z,63.82
2019-02-25T01:08:00.571Z,63.22
2019-02-25T01:08:31.835Z,62.91
2019-02-25T01:09:03.049Z,62.83
2019-02-25T01:09:34.254Z,62.83
2019-02-25T01:10:05.656Z,63.06
2019-02-25T01:10:36.898Z,63.06
2019-02-25T01:11:08.187Z,63.27
2019-02-25T01:11:39.448Z,63.51
2019-02-25T01:12:10.659Z,64.44
2019-02-25T01:12:41.892Z,63.89
2019-02-25T01:13:13.124Z,63.75
2019-02-25T01:13:44.330Z,64.04
2019-02-25T01:14:15.541Z,63.84
2019-02-25T01:14:46.761Z,63.49
2019-02-25T01:15:18.021Z,64.40
2019-02-25T01:15:49.262Z,64.40
2019-02-25T01:16:20.479Z,64.49
2019-02-25T01:16:51.683Z,63.88
2019-02-25T01:17:22.896Z,64.53
2019-02-25T01:17:54.106Z,63.63
2019-02-25T01:18:25.372Z,64.71
2019-02-25T01:18:56.652Z,63.99
2019-02-25T01:19:27.814Z,63.99
2019-02-25T01:19:59.027Z,64.00
2019-02-25T01:20:30.243Z,63.77
2019-02-25T01:21:01.525Z,63.63
2019-02-25T01:21:32.727Z,63.71
2019-02-25T01:22:03.951Z,63.47
2019-02-25T01:22:35.154Z,63.56
2019-02-25T01:23:06.414Z,63.43
2019-02-25T01:23:37.621Z,63.31
2019-02-25T01:24:08.824Z,63.31
2019-02-25T01:24:40.090Z,63.77
2019-02-25T01:25:11.295Z,63.77
2019-02-25T01:25:42.517Z,64.34
2019-02-25T01:26:13.737Z,64.44
2019-02-25T01:26:44.954Z,64.44
2019-02-25T01:27:16.195Z,64.68
2019-02-25T01:27:47.412Z,64.68
2019-02-25T01:28:18.617Z,64.99
2019-02-25T01:28:49.899Z,66.07
2019-02-25T01:29:21.114Z,65.76
2019-02-25T01:29:52.337Z,65.02
2019-02-25T01:30:23.634Z,65.12
2019-02-25T01:30:54.858Z,65.35
2019-02-25T01:31:26.074Z,65.06
2019-02-25T01:31:57.295Z,65.12
2019-02-25T01:32:28.507Z,65.12
2019-02-25T01:32:59.728Z,65.64
2019-02-25T01:33:30.938Z,65.64
2019-02-25T01:34:02.204Z,66.63
2019-02-25T01:34:33.420Z,66.44
2019-02-25T01:35:04.657Z,66.13
2019-02-25T01:35:35.871Z,66.25
2019-02-25T01:36:07.110Z,66.16
2019-02-25T01:36:38.311Z,66.39
2019-02-25T01:37:09.525Z,66.69
2019-02-25T01:37:40.733Z,66.78
2019-02-25T01:38:11.947Z,66.88
2019-02-25T01:38:43.378Z,67.05
2019-02-25T01:39:14.649Z,67.07
2019-02-25T01:39:45.919Z,67.45
2019-02-25T01:40:17.128Z,67.72
2019-02-25T01:40:48.340Z,67.90
2019-02-25T01:41:19.624Z,68.42
2019-02-25T01:41:50.838Z,69.09
2019-02-25T01:42:22.059Z,69.65
2019-02-25T01:42:53.294Z,69.59
2019-02-25T01:43:24.524Z,69.89
2019-02-25T01:43:55.782Z,69.55
2019-02-25T01:44:27.001Z,68.97
2019-02-25T01:44:58.232Z,68.45
2019-02-25T01:45:29.448Z,67.85
2019-02-25T01:46:00.681Z,67.65
2019-02-25T01:46:31.936Z,67.78
2019-02-25T01:47:03.157Z,67.94
2019-02-25T01:47:34.397Z,68.07
2019-02-25T01:48:05.621Z,68.19
2019-02-25T01:48:36.846Z,68.30
2019-02-25T01:49:08.137Z,68.74
2019-02-25T01:49:39.355Z,68.92
2019-02-25T01:50:10.587Z,68.78
2019-02-25T01:50:41.799Z,68.76
2019-02-25T01:51:13.020Z,68.80
2019-02-25T01:51:44.247Z,68.68
2019-02-25T01:52:15.487Z,68.83
2019-02-25T01:52:46.744Z,68.85
2019-02-25T01:53:17.959Z,68.95
2019-02-25T01:53:49.195Z,68.99
2019-02-25T01:54:20.586Z,68.92
2019-02-25T01:54:51.810Z,68.54
2019-02-25T01:55:23.027Z,68.54
2019-02-25T01:55:54.241Z,68.59
2019-02-25T01:56:25.458Z,68.59
2019-02-25T01:56:56.664Z,68.78
2019-02-25T01:57:27.881Z,68.77
2019-02-25T01:57:59.147Z,68.88
2019-02-25T01:58:30.387Z,68.88
2019-02-25T01:59:01.594Z,69.01
2019-02-25T01:59:32.887Z,69.10
2019-02-25T02:00:04.106Z,69.05
2019-02-25T02:00:35.330Z,69.06
2019-02-25T02:01:06.931Z,69.12
2019-02-25T02:01:38.112Z,69.36
2019-02-25T02:02:09.329Z,69.86
2019-02-25T02:02:40.564Z,69.57
2019-02-25T02:03:11.782Z,69.36
2019-02-25T02:03:43.117Z,69.33
2019-02-25T02:04:14.352Z,69.70
2019-02-25T02:04:45.561Z,69.79
2019-02-25T02:05:16.772Z,69.58
2019-02-25T02:05:48.001Z,69.52
2019-02-25T02:06:19.225Z,69.43
2019-02-25T02:06:50.432Z,69.29
2019-02-25T02:07:21.644Z,69.23
2019-02-25T02:07:52.909Z,69.11
2019-02-25T02:08:24.117Z,69.08
2019-02-25T02:08:55.337Z,69.10
2019-02-25T02:09:26.548Z,68.81
2019-02-25T02:09:57.843Z,68.79
2019-02-25T02:10:29.069Z,68.79
2019-02-25T02:11:00.284Z,68.79
2019-02-25T02:11:31.498Z,68.83
2019-02-25T02:12:02.762Z,68.69
2019-02-25T02:12:33.993Z,68.60
2019-02-25T02:13:13.930Z,68.59
2019-02-25T02:13:38.152Z,68.59
2019-02-25T02:14:09.418Z,68.68
2019-02-25T02:14:40.657Z,68.74
2019-02-25T02:15:11.905Z,68.50
2019-02-25T02:15:43.127Z,68.47
2019-02-25T02:16:14.342Z,68.46
2019-02-25T02:16:45.564Z,68.64
2019-02-25T02:17:16.792Z,68.74
2019-02-25T02:17:48.024Z,68.73
2019-02-25T02:18:19.468Z,68.63
2019-02-25T02:18:50.674Z,68.83
2019-02-25T02:19:21.885Z,68.80
2019-02-25T02:19:53.111Z,68.76
2019-02-25T02:20:24.387Z,68.51
2019-02-25T02:20:55.699Z,68.42
2019-02-25T02:21:26.916Z,68.94
2019-02-25T02:21:58.135Z,69.09
2019-02-25T02:22:29.359Z,68.78
2019-02-25T02:23:00.598Z,68.54
2019-02-25T02:23:31.834Z,68.54
2019-02-25T02:24:03.047Z,68.25
2019-02-25T02:24:34.258Z,67.95
2019-02-25T02:25:05.470Z,68.01
2019-02-25T02:25:36.747Z,68.11
2019-02-25T02:26:07.993Z,68.27
2019-02-25T02:26:39.225Z,68.39
2019-02-25T02:27:10.444Z,68.41
2019-02-25T02:27:41.657Z,67.91
2019-02-25T02:28:12.904Z,67.56
2019-02-25T02:28:44.168Z,67.44
2019-02-25T02:29:15.394Z,67.63
2019-02-25T02:29:46.673Z,67.85
2019-02-25T02:30:17.906Z,67.77
2019-02-25T02:30:49.135Z,67.46
2019-02-25T02:31:20.345Z,67.15
2019-02-25T02:31:51.577Z,67.01
2019-02-25T02:32:22.843Z,67.09
2019-02-25T02:32:54.070Z,67.12
2019-02-25T02:33:25.299Z,67.12
2019-02-25T02:33:56.564Z,67.12
2019-02-25T02:34:27.774Z,67.09
2019-02-25T02:34:59.041Z,67.06
2019-02-25T02:35:30.300Z,66.90
2019-02-25T02:36:01.529Z,66.77
2019-02-25T02:36:32.769Z,66.74
2019-02-25T02:37:03.989Z,66.72
2019-02-25T02:37:35.221Z,66.70
2019-02-25T02:38:06.430Z,66.61
2019-02-25T02:38:37.652Z,66.59
2019-02-25T02:39:08.876Z,66.67
2019-02-25T02:39:40.095Z,66.72
2019-02-25T02:40:11.368Z,66.74
2019-02-25T02:40:44.870Z,66.79
2019-02-25T02:41:16.110Z,66.92
2019-02-25T02:41:47.346Z,67.15
2019-02-25T02:42:19.604Z,67.25
2019-02-25T02:42:50.838Z,67.32
2019-02-25T02:43:22.057Z,67.40
2019-02-25T02:43:53.297Z,67.48
2019-02-25T02:44:24.570Z,67.62
2019-02-25T02:44:55.861Z,67.74
2019-02-25T02:45:27.107Z,67.81
2019-02-25T02:45:58.367Z,67.84
2019-02-25T02:46:29.547Z,67.91
2019-02-25T02:47:00.760Z,67.90
2019-02-25T02:47:31.976Z,68.07
2019-02-25T02:48:03.206Z,68.18
2019-02-25T02:48:34.421Z,68.32
2019-02-25T02:49:05.643Z,68.35
2019-02-25T02:49:36.927Z,68.33
2019-02-25T02:50:08.140Z,68.34
2019-02-25T02:50:39.344Z,68.26
2019-02-25T02:51:10.580Z,68.18
2019-02-25T02:51:41.823Z,68.19
2019-02-25T02:52:13.040Z,68.27
2019-02-25T02:52:44.267Z,68.34
2019-02-25T02:53:15.482Z,68.40
2019-02-25T02:53:46.704Z,68.43
2019-02-25T02:54:17.952Z,68.43
2019-02-25T02:54:49.205Z,68.42
2019-02-25T02:55:20.436Z,68.46
2019-02-25T02:55:51.651Z,68.51
2019-02-25T02:56:22.875Z,68.54
2019-02-25T02:56:54.142Z,68.62
2019-02-25T02:57:25.353Z,68.59
2019-02-25T02:57:56.577Z,68.70
2019-02-25T02:58:27.788Z,68.74
2019-02-25T02:58:59.021Z,68.88
2019-02-25T02:59:30.248Z,69.06
2019-02-25T03:00:01.495Z,69.40
2019-02-25T03:00:32.735Z,69.70
2019-02-25T03:01:03.969Z,69.81
2019-02-25T03:01:35.185Z,69.86
2019-02-25T03:02:06.460Z,69.98
2019-02-25T03:02:37.681Z,70.05
2019-02-25T03:03:08.903Z,70.15
2019-02-25T03:03:40.124Z,70.23
2019-02-25T03:04:11.370Z,70.34
2019-02-25T03:04:42.601Z,70.36
2019-02-25T03:05:13.870Z,70.29
2019-02-25T03:05:45.056Z,70.30
2019-02-25T03:06:16.281Z,70.29
2019-02-25T03:06:47.517Z,70.31
2019-02-25T03:07:18.797Z,70.47
2019-02-25T03:07:50.018Z,70.59
2019-02-25T03:08:21.257Z,70.98
2019-02-25T03:08:52.492Z,71.07
2019-02-25T03:09:23.788Z,70.94
2019-02-25T03:09:55.046Z,70.94
2019-02-25T03:10:26.383Z,71.06
2019-02-25T03:10:57.607Z,70.83
2019-02-25T03:11:28.823Z,70.22
2019-02-25T03:12:00.056Z,70.49
2019-02-25T03:12:31.469Z,70.29
2019-02-25T03:13:02.705Z,70.68
2019-02-25T03:13:33.921Z,70.52
2019-02-25T03:14:05.227Z,70.52
2019-02-25T03:14:36.438Z,70.30
2019-02-25T03:15:07.650Z,70.16
2019-02-25T03:15:38.925Z,69.80
2019-02-25T03:16:10.136Z,69.36
2019-02-25T03:16:41.349Z,69.04
2019-02-25T03:17:12.581Z,69.01
2019-02-25T03:17:43.792Z,69.31
2019-02-25T03:18:15.018Z,69.41
2019-02-25T03:18:46.263Z,68.91
2019-02-25T03:19:17.503Z,68.86
2019-02-25T03:19:48.730Z,68.85
2019-02-25T03:20:19.953Z,68.77
2019-02-25T03:20:51.231Z,69.04
2019-02-25T03:21:22.508Z,69.21
2019-02-25T03:21:53.733Z,68.73
2019-02-25T03:22:24.970Z,68.43
2019-02-25T03:22:56.195Z,67.42
2019-02-25T03:23:27.420Z,67.12
2019-02-25T03:23:58.637Z,67.61
2019-02-25T03:24:29.865Z,67.21
2019-02-25T03:25:01.107Z,66.84
2019-02-25T03:25:32.344Z,66.43
2019-02-25T03:26:03.568Z,66.03
2019-02-25T03:26:34.815Z,66.63
2019-02-25T03:27:06.115Z,66.00
2019-02-25T03:27:37.370Z,65.75
2019-02-25T03:28:08.622Z,65.44
2019-02-25T03:28:39.864Z,65.47
2019-02-25T03:29:11.084Z,66.01
2019-02-25T03:29:42.349Z,66.38
2019-02-25T03:30:13.551Z,66.54
2019-02-25T03:30:44.790Z,66.35
2019-02-25T03:31:16.054Z,66.12
2019-02-25T03:31:47.276Z,66.34
2019-02-25T03:32:18.536Z,66.34
2019-02-25T03:32:49.882Z,66.39
2019-02-25T03:33:21.114Z,66.54
2019-02-25T03:33:52.330Z,66.86
2019-02-25T03:34:23.552Z,66.86
2019-02-25T03:34:54.788Z,67.09
2019-02-25T03:35:26.049Z,67.07
2019-02-25T03:35:57.274Z,67.01
2019-02-25T03:36:28.486Z,66.79
2019-02-25T03:36:59.720Z,66.67
2019-02-25T03:37:30.934Z,66.72
2019-02-25T03:38:02.210Z,66.83
2019-02-25T03:38:33.422Z,66.92
2019-02-25T03:39:04.683Z,67.00
2019-02-25T03:39:35.896Z,67.10
2019-02-25T03:40:07.200Z,67.51
2019-02-25T03:40:38.427Z,68.08
2019-02-25T03:41:09.645Z,67.80
2019-02-25T03:41:40.917Z,67.33
2019-02-25T03:42:12.126Z,67.41
2019-02-25T03:42:43.472Z,67.38
2019-02-25T03:43:14.741Z,68.63
2019-02-25T03:43:45.976Z,69.01
2019-02-25T03:44:17.192Z,68.74
2019-02-25T03:44:48.424Z,67.95
2019-02-25T03:45:19.647Z,67.44
2019-02-25T03:45:50.899Z,67.22
2019-02-25T03:46:22.122Z,67.32
2019-02-25T03:46:53.358Z,67.15
2019-02-25T03:47:24.603Z,66.99
2019-02-25T03:47:55.872Z,66.62
2019-02-25T03:48:27.096Z,67.29
2019-02-25T03:48:58.331Z,67.31
2019-02-25T03:49:29.558Z,67.87
2019-02-25T03:50:00.806Z,67.32
2019-02-25T03:50:32.022Z,66.57
2019-02-25T03:51:03.274Z,66.57
2019-02-25T03:51:34.493Z,66.26
2019-02-25T03:52:05.721Z,66.37
2019-02-25T03:52:36.982Z,66.54
2019-02-25T03:53:08.234Z,66.65
2019-02-25T03:53:39.458Z,67.23
2019-02-25T03:54:10.700Z,67.36
2019-02-25T03:54:41.930Z,67.49
2019-02-25T03:55:13.155Z,67.70
2019-02-25T03:55:44.383Z,67.91
2019-02-25T03:56:15.619Z,67.72
2019-02-25T03:56:46.831Z,67.43
2019-02-25T03:57:18.065Z,67.54
2019-02-25T03:57:49.339Z,67.81
2019-02-25T03:58:20.569Z,67.63
2019-02-25T03:58:51.781Z,67.57
2019-02-25T03:59:23.019Z,67.17
2019-02-25T03:59:54.231Z,67.43
2019-02-25T04:00:25.490Z,67.33
2019-02-25T04:00:56.725Z,67.33
2019-02-25T04:01:27.953Z,67.48
2019-02-25T04:01:59.165Z,67.48
2019-02-25T04:02:30.397Z,67.32
2019-02-25T04:03:01.729Z,67.29
2019-02-25T04:03:32.966Z,67.28
2019-02-25T04:04:04.187Z,67.33
2019-02-25T04:04:35.415Z,67.50
2019-02-25T04:05:06.631Z,67.62
2019-02-25T04:05:37.849Z,68.10
2019-02-25T04:06:09.090Z,68.57
2019-02-25T04:06:40.299Z,69.04
2019-02-25T04:07:11.523Z,68.79
2019-02-25T04:07:45.523Z,68.50
2019-02-25T04:08:16.760Z,68.43
2019-02-25T04:08:47.992Z,68.52
2019-02-25T04:09:19.198Z,68.48
2019-02-25T04:09:50.448Z,68.27
2019-02-25T04:10:21.690Z,68.17
2019-02-25T04:10:52.919Z,68.13
2019-02-25T04:11:24.185Z,68.11
2019-02-25T04:11:55.439Z,68.14
2019-02-25T04:12:26.668Z,68.14
2019-02-25T04:12:57.893Z,68.37
2019-02-25T04:13:29.120Z,68.43
2019-02-25T04:14:00.345Z,68.31
2019-02-25T04:14:31.613Z,68.36
2019-02-25T04:15:02.842Z,68.33
2019-02-25T04:15:34.105Z,68.31
2019-02-25T04:16:05.348Z,68.27
2019-02-25T04:16:36.581Z,68.30
2019-02-25T04:17:07.921Z,68.23
2019-02-25T04:17:39.157Z,68.22
2019-02-25T04:18:10.454Z,68.38
2019-02-25T04:18:41.711Z,68.53
2019-02-25T04:19:12.933Z,68.88
2019-02-25T04:19:44.169Z,69.05
2019-02-25T04:20:15.384Z,69.07
2019-02-25T04:20:46.608Z,69.25
2019-02-25T04:21:17.826Z,69.33
2019-02-25T04:21:49.036Z,69.25
2019-02-25T04:22:20.277Z,69.28
2019-02-25T04:22:51.505Z,69.29
2019-02-25T04:23:22.758Z,69.30
2019-02-25T04:23:53.993Z,69.29
2019-02-25T04:24:25.197Z,69.21
2019-02-25T04:24:56.453Z,69.31
2019-02-25T04:25:27.691Z,69.31
2019-02-25T04:25:58.906Z,69.39
2019-02-25T04:26:31.060Z,69.38
2019-02-25T04:27:02.301Z,69.17
2019-02-25T04:27:33.515Z,69.14
2019-02-25T04:28:04.722Z,69.10
2019-02-25T04:28:35.988Z,69.15
2019-02-25T04:29:07.204Z,69.23
2019-02-25T04:29:38.429Z,69.36
2019-02-25T04:30:09.651Z,69.41
2019-02-25T04:30:40.875Z,69.14
2019-02-25T04:31:12.097Z,68.99
2019-02-25T04:31:43.366Z,69.08
2019-02-25T04:32:14.611Z,69.06
2019-02-25T04:32:45.872Z,68.85
2019-02-25T04:33:17.126Z,68.96
2019-02-25T04:33:48.433Z,69.15
2019-02-25T04:34:19.810Z,69.37
2019-02-25T04:34:51.034Z,69.26
2019-02-25T04:35:22.261Z,69.37
2019-02-25T04:35:53.502Z,69.43
2019-02-25T04:36:24.837Z,70.01
2019-02-25T04:36:56.031Z,70.01
2019-02-25T04:37:27.280Z,69.72
2019-02-25T04:37:58.522Z,69.77
2019-02-25T04:38:29.715Z,70.34
2019-02-25T04:39:00.976Z,70.79
2019-02-25T04:39:32.203Z,70.62
2019-02-25T04:40:03.414Z,69.82
2019-02-25T04:40:34.620Z,69.11
2019-02-25T04:41:05.927Z,68.92
2019-02-25T04:41:37.152Z,68.90
2019-02-25T04:42:08.347Z,68.85
2019-02-25T04:42:39.570Z,68.83
2019-02-25T04:43:10.867Z,68.74
2019-02-25T04:43:42.073Z,68.70
2019-02-25T04:44:13.300Z,68.84
2019-02-25T04:44:44.524Z,69.58
2019-02-25T04:45:15.760Z,69.58
2019-02-25T04:45:47.016Z,69.76
2019-02-25T04:46:18.219Z,69.26
2019-02-25T04:46:49.458Z,68.91
2019-02-25T04:47:20.684Z,68.81
2019-02-25T04:47:51.915Z,68.36
2019-02-25T04:48:23.131Z,68.22
2019-02-25T04:48:54.366Z,68.26
2019-02-25T04:49:25.636Z,69.26
2019-02-25T04:49:56.871Z,69.11
2019-02-25T04:50:28.129Z,69.20
2019-02-25T04:50:59.376Z,69.07
2019-02-25T04:51:30.593Z,68.74
2019-02-25T04:52:01.809Z,68.35
2019-02-25T04:52:33.028Z,68.22
2019-02-25T04:53:04.258Z,68.10
2019-02-25T04:53:35.520Z,68.23
2019-02-25T04:54:06.727Z,68.34
2019-02-25T04:54:37.960Z,68.36
2019-02-25T04:55:09.182Z,68.39
2019-02-25T04:55:40.437Z,69.43
2019-02-25T04:56:11.658Z,69.01
2019-02-25T04:56:42.899Z,68.50
2019-02-25T04:57:14.155Z,67.79
2019-02-25T04:57:45.372Z,67.65
2019-02-25T04:58:16.654Z,67.74
2019-02-25T04:58:47.886Z,68.20
2019-02-25T04:59:19.097Z,68.51
2019-02-25T04:59:50.325Z,68.51
2019-02-25T05:00:21.539Z,68.04
2019-02-25T05:00:52.773Z,67.85
2019-02-25T05:01:23.986Z,67.71
2019-02-25T05:01:55.375Z,67.72
2019-02-25T05:02:26.615Z,68.17
2019-02-25T05:02:57.826Z,68.35
2019-02-25T05:03:29.074Z,68.32
2019-02-25T05:04:00.266Z,69.65
2019-02-25T05:04:31.501Z,68.75
2019-02-25T05:05:02.720Z,67.70
2019-02-25T05:05:33.939Z,67.70
2019-02-25T05:06:05.172Z,67.19
2019-02-25T05:06:36.383Z,66.76
2019-02-25T05:07:07.682Z,66.51
2019-02-25T05:07:38.921Z,67.25
2019-02-25T05:08:10.146Z,67.73
2019-02-25T05:08:41.355Z,67.68
2019-02-25T05:09:12.673Z,67.10
2019-02-25T05:09:43.895Z,66.60
2019-02-25T05:10:15.118Z,66.06
2019-02-25T05:10:46.331Z,66.28
2019-02-25T05:11:17.560Z,65.96
2019-02-25T05:11:48.793Z,66.57
2019-02-25T05:12:20.055Z,66.64
2019-02-25T05:12:51.271Z,66.36
2019-02-25T05:13:22.492Z,65.94
2019-02-25T05:13:53.732Z,65.73
2019-02-25T05:14:24.949Z,66.18
2019-02-25T05:14:56.164Z,66.41
2019-02-25T05:15:27.384Z,65.53
2019-02-25T05:15:58.642Z,65.06
2019-02-25T05:16:29.867Z,65.14
2019-02-25T05:17:01.122Z,65.54
2019-02-25T05:17:32.344Z,65.40
2019-02-25T05:18:03.679Z,65.52
2019-02-25T05:18:34.906Z,65.57
2019-02-25T05:19:06.131Z,66.17
2019-02-25T05:19:37.390Z,65.89
2019-02-25T05:20:08.616Z,67.00
2019-02-25T05:20:39.885Z,67.00
2019-02-25T05:21:11.116Z,66.92
2019-02-25T05:21:42.320Z,66.28
2019-02-25T05:22:13.536Z,65.77
2019-02-25T05:22:44.756Z,66.00
2019-02-25T05:23:16.000Z,66.39
2019-02-25T05:23:47.221Z,65.72
2019-02-25T05:24:18.440Z,65.53
2019-02-25T05:24:49.655Z,65.79
2019-02-25T05:25:20.886Z,65.34
2019-02-25T05:25:52.152Z,65.60
2019-02-25T05:26:23.377Z,65.36
2019-02-25T05:26:54.763Z,66.40
2019-02-25T05:27:25.997Z,65.74
2019-02-25T05:27:57.227Z,65.12
2019-02-25T05:28:28.453Z,65.33
2019-02-25T05:28:59.667Z,64.97
2019-02-25T05:29:30.890Z,64.78
2019-02-25T05:30:02.129Z,64.67
2019-02-25T05:30:33.398Z,64.75
2019-02-25T05:31:04.618Z,65.23
2019-02-25T05:31:35.833Z,65.04
2019-02-25T05:32:07.058Z,64.78
2019-02-25T05:32:38.274Z,64.52
2019-02-25T05:33:09.512Z,64.70
2019-02-25T05:33:40.793Z,65.40
2019-02-25T05:34:12.018Z,65.35
2019-02-25T05:34:43.250Z,65.85
2019-02-25T05:35:14.482Z,66.85
2019-02-25T05:35:45.735Z,66.40
2019-02-25T05:36:16.949Z,65.85
2019-02-25T05:36:48.212Z,65.60
2019-02-25T05:37:19.429Z,65.05
2019-02-25T05:37:50.640Z,64.65
2019-02-25T05:38:21.903Z,64.95
2019-02-25T05:38:53.129Z,65.80
2019-02-25T05:39:24.367Z,65.11
2019-02-25T05:39:55.571Z,64.98
2019-02-25T05:40:26.798Z,65.15
2019-02-25T05:40:58.067Z,66.16
2019-02-25T05:41:29.292Z,66.84
2019-02-25T05:42:00.503Z,67.29
2019-02-25T05:42:31.729Z,66.10
2019-02-25T05:43:03.276Z,64.52
2019-02-25T05:43:34.744Z,64.45
2019-02-25T05:44:08.491Z,64.66
2019-02-25T05:44:38.902Z,65.05
2019-02-25T05:45:10.208Z,64.54
2019-02-25T05:45:41.432Z,64.07
2019-02-25T05:46:12.628Z,63.99
2019-02-25T05:46:43.849Z,64.10
2019-02-25T05:47:15.072Z,64.05
2019-02-25T05:47:46.321Z,64.30
2019-02-25T05:48:17.541Z,63.90
2019-02-25T05:48:48.812Z,64.04
2019-02-25T05:49:20.029Z,64.14
2019-02-25T05:49:51.252Z,64.06
2019-02-25T05:50:22.478Z,63.80
2019-02-25T05:50:53.749Z,63.90
2019-02-25T05:51:24.945Z,64.03
2019-02-25T05:51:56.176Z,63.90
2019-02-25T05:52:27.396Z,64.14
2019-02-25T05:52:58.619Z,64.36
2019-02-25T05:53:29.831Z,64.54
2019-02-25T05:54:01.162Z,64.57
2019-02-25T05:54:32.395Z,64.74
2019-02-25T05:55:03.621Z,65.38
2019-02-25T05:55:34.884Z,65.75
2019-02-25T05:56:06.106Z,65.29
2019-02-25T05:56:37.335Z,64.76
2019-02-25T05:57:08.563Z,64.94
2019-02-25T05:57:39.771Z,65.00
2019-02-25T05:58:11.036Z,64.89
2019-02-25T05:58:42.273Z,66.21
2019-02-25T05:59:13.498Z,66.32
2019-02-25T05:59:44.718Z,65.42
2019-02-25T06:00:15.963Z,65.60
2019-02-25T06:00:47.238Z,64.45
2019-02-25T06:01:18.607Z,64.20
2019-02-25T06:01:49.907Z,64.10
2019-02-25T06:02:21.134Z,63.92
2019-02-25T06:02:52.343Z,63.88
2019-02-25T06:03:23.619Z,64.01
2019-02-25T06:03:54.856Z,64.18
2019-02-25T06:04:26.091Z,64.43
2019-02-25T06:04:57.370Z,64.66
2019-02-25T06:05:28.582Z,64.81
2019-02-25T06:05:59.816Z,64.51
2019-02-25T06:06:31.038Z,64.64
2019-02-25T06:07:02.254Z,64.59
2019-02-25T06:07:33.486Z,64.78
2019-02-25T06:08:04.715Z,64.32
2019-02-25T06:08:35.930Z,64.43
2019-02-25T06:09:07.167Z,64.17
2019-02-25T06:09:38.399Z,64.27
2019-02-25T06:10:09.660Z,64.39
2019-02-25T06:10:40.879Z,64.23
2019-02-25T06:11:12.094Z,64.52
2019-02-25T06:11:43.336Z,64.90
2019-02-25T06:12:14.570Z,66.42
2019-02-25T06:12:45.787Z,65.65
2019-02-25T06:13:17.001Z,64.84
2019-02-25T06:13:48.562Z,65.47
2019-02-25T06:14:19.851Z,64.68
2019-02-25T06:14:51.061Z,63.87
2019-02-25T06:15:22.292Z,63.56
2019-02-25T06:15:53.532Z,63.29
2019-02-25T06:16:24.728Z,63.35
2019-02-25T06:16:55.956Z,65.03
2019-02-25T06:17:27.192Z,64.52
2019-02-25T06:17:58.384Z,64.41
2019-02-25T06:18:29.620Z,63.32
2019-02-25T06:19:00.886Z,62.68
2019-02-25T06:19:32.201Z,63.48
2019-02-25T06:20:03.434Z,63.61
2019-02-25T06:20:34.679Z,61.96
2019-02-25T06:21:05.936Z,61.71
2019-02-25T06:21:37.131Z,61.40
2019-02-25T06:22:08.394Z,59.95
2019-02-25T06:22:39.673Z,59.92
2019-02-25T06:23:10.908Z,60.07
2019-02-25T06:23:42.208Z,61.92
2019-02-25T06:24:13.460Z,61.92
2019-02-25T06:24:44.671Z,61.21
2019-02-25T06:25:16.019Z,61.04
2019-02-25T06:25:47.352Z,60.33
2019-02-25T06:26:18.598Z,60.62
2019-02-25T06:26:49.829Z,60.02
2019-02-25T06:27:30.247Z,59.19
2019-02-25T06:27:54.005Z,59.95
2019-02-25T06:28:25.245Z,61.27
2019-02-25T06:28:56.471Z,61.27
2019-02-25T06:29:27.747Z,60.71
2019-02-25T06:29:58.963Z,60.75
2019-02-25T06:30:30.209Z,61.48
2019-02-25T06:31:01.486Z,60.21
2019-02-25T06:31:32.703Z,60.21
2019-02-25T06:32:03.962Z,58.51
2019-02-25T06:32:35.209Z,58.51
2019-02-25T06:33:06.446Z,58.29
2019-02-25T06:33:37.651Z,58.31
2019-02-25T06:34:08.891Z,57.26
2019-02-25T06:34:40.106Z,57.06
2019-02-25T06:35:11.314Z,58.01
2019-02-25T06:35:42.574Z,57.31
2019-02-25T06:36:13.779Z,56.40
2019-02-25T06:36:45.007Z,55.70
2019-02-25T06:37:16.322Z,55.67
2019-02-25T06:37:47.562Z,56.32
2019-02-25T06:38:18.784Z,57.00
2019-02-25T06:38:50.007Z,55.95
2019-02-25T06:39:21.209Z,56.94
2019-02-25T06:39:52.447Z,56.55
2019-02-25T06:40:23.658Z,58.04
2019-02-25T06:40:54.886Z,57.31
2019-02-25T06:41:26.108Z,56.57
2019-02-25T06:41:57.368Z,56.89
2019-02-25T06:42:28.605Z,56.87